createdAt,value
2022-12-31T00:02:08.807Z,1
2022-12-31T00:12:08.826Z,1
2022-12-31T00:22:08.694Z,1
2022-12-31T00:32:08.825Z,1
2022-12-31T00:42:08.719Z,1
2022-12-31T00:52:08.854Z,1
2022-12-31T01:02:08.855Z,1
2022-12-31T01:12:08.857Z,1
2022-12-31T01:22:08.757Z,1
2022-12-31T01:32:08.835Z,1
2022-12-31T01:42:08.683Z,1
2022-12-31T01:52:08.815Z,1
2022-12-31T02:02:08.877Z,1
2022-12-31T02:12:08.809Z,1
2022-12-31T02:22:08.894Z,1
2022-12-31T02:32:08.790Z,1
2022-12-31T02:42:08.866Z,1
2022-12-31T02:52:08.815Z,1
2022-12-31T03:02:08.974Z,1
2022-12-31T03:12:09.002Z,1
2022-12-31T03:22:08.869Z,1
2022-12-31T03:32:08.990Z,1
2022-12-31T03:42:08.879Z,1
2022-12-31T03:52:08.998Z,1
2022-12-31T04:02:08.992Z,1
2022-12-31T04:12:08.985Z,1
2022-12-31T04:22:08.839Z,1
2022-12-31T04:32:09.035Z,1
2022-12-31T04:42:09.037Z,1
2022-12-31T04:52:08.968Z,1
2022-12-31T05:02:09.189Z,1
2022-12-31T05:12:08.944Z,1
2022-12-31T05:22:09.047Z,1
2022-12-31T05:32:08.941Z,1
2022-12-31T05:42:09.035Z,1
2022-12-31T05:52:08.966Z,1
2022-12-31T06:02:09.029Z,1
2022-12-31T06:12:09.140Z,1
2022-12-31T06:22:09.045Z,1
2022-12-31T06:32:09.153Z,1
2022-12-31T06:42:09.022Z,1
2022-12-31T06:52:09.211Z,1
2022-12-31T07:02:09.058Z,1
2022-12-31T07:12:09.122Z,1
2022-12-31T07:22:09.222Z,1
2022-12-31T07:32:09.151Z,1
2022-12-31T07:42:09.222Z,1
2022-12-31T07:52:09.104Z,3
2022-12-31T08:02:09.228Z,5
2022-12-31T08:12:09.136Z,14
2022-12-31T08:22:09.212Z,26
2022-12-31T08:32:09.107Z,43
2022-12-31T08:42:09.181Z,61
2022-12-31T08:52:09.308Z,69
2022-12-31T09:02:09.295Z,74
2022-12-31T09:12:09.326Z,72
2022-12-31T09:22:09.172Z,75
2022-12-31T09:32:09.303Z,85
2022-12-31T09:42:09.160Z,86
2022-12-31T09:52:09.315Z,83
2022-12-31T10:02:09.505Z,85
2022-12-31T10:12:09.304Z,86
2022-12-31T10:22:09.386Z,87
2022-12-31T10:32:09.457Z,89
2022-12-31T10:42:09.426Z,89
2022-12-31T10:52:09.652Z,88
2022-12-31T11:02:09.548Z,86
2022-12-31T11:12:09.314Z,89
2022-12-31T11:22:09.402Z,86
2022-12-31T11:32:09.549Z,87
2022-12-31T11:42:09.414Z,88
2022-12-31T11:52:09.511Z,89
2022-12-31T12:02:09.416Z,90
2022-12-31T12:12:09.514Z,92
2022-12-31T12:22:09.359Z,92
2022-12-31T12:32:09.524Z,92
2022-12-31T12:42:09.354Z,92
2022-12-31T12:52:09.511Z,89
2022-12-31T13:02:09.546Z,90
2022-12-31T13:12:09.526Z,89
2022-12-31T13:22:09.611Z,90
2022-12-31T13:32:09.599Z,90
2022-12-31T13:42:09.572Z,91
2022-12-31T13:52:09.497Z,90
2022-12-31T14:02:09.717Z,89
2022-12-31T14:12:09.537Z,90
2022-12-31T14:22:09.592Z,89
2022-12-31T14:32:09.603Z,81
2022-12-31T14:42:09.588Z,82
2022-12-31T14:52:09.701Z,76
2022-12-31T15:02:09.781Z,75
2022-12-31T15:12:09.678Z,57
2022-12-31T15:22:09.525Z,47
2022-12-31T15:32:09.657Z,49
2022-12-31T15:52:09.678Z,33
2022-12-31T16:02:09.641Z,21
2022-12-31T16:12:09.655Z,12
2022-12-31T16:22:09.728Z,4
2022-12-31T16:32:09.643Z,2
2022-12-31T16:42:09.747Z,1
2022-12-31T16:52:09.651Z,1
2022-12-31T17:02:09.844Z,1
2022-12-31T17:12:09.790Z,1
2022-12-31T17:22:09.749Z,1
2022-12-31T17:32:09.885Z,1
2022-12-31T17:42:09.728Z,1
2022-12-31T17:52:09.841Z,1
2022-12-31T18:02:09.776Z,1
2022-12-31T18:12:09.837Z,1
2022-12-31T18:22:09.779Z,1
2022-12-31T18:32:10.429Z,1
2022-12-31T18:42:10.130Z,1
2022-12-31T18:52:09.915Z,2
2022-12-31T19:02:10.518Z,1
2022-12-31T19:12:09.905Z,1
2022-12-31T19:22:09.754Z,1
2022-12-31T19:32:10.003Z,1
2022-12-31T19:42:09.828Z,1
2022-12-31T19:52:09.920Z,1
2022-12-31T20:02:09.957Z,1
2022-12-31T20:12:09.887Z,1
2022-12-31T20:22:09.987Z,1
2022-12-31T20:32:09.894Z,1
2022-12-31T20:42:09.986Z,1
2022-12-31T20:52:09.874Z,1
2022-12-31T21:02:20.833Z,1
2022-12-31T21:12:09.893Z,1
2022-12-31T21:22:09.966Z,1
2022-12-31T21:32:10.118Z,1
2022-12-31T21:42:09.980Z,1
2022-12-31T21:52:10.071Z,1
2022-12-31T22:02:10.100Z,1
2022-12-31T22:12:10.103Z,1
2022-12-31T22:22:09.962Z,1
2022-12-31T22:32:10.071Z,1
2022-12-31T22:42:09.929Z,1
2022-12-31T22:52:10.072Z,1
2022-12-31T23:02:10.149Z,1
2022-12-31T23:12:10.081Z,1
2022-12-31T23:22:10.152Z,1
2022-12-31T23:32:10.049Z,1
2022-12-31T23:42:10.123Z,1
2022-12-31T23:52:10.083Z,1
